createdAt,value
2023-01-03T00:01:58.968Z,7.89
2023-01-03T00:04:25.496Z,7.88
2023-01-03T00:06:53.927Z,7.87
2023-01-03T00:09:23.121Z,7.85
2023-01-03T00:12:09.909Z,7.85
2023-01-03T00:14:38.723Z,7.85
2023-01-03T00:17:06.962Z,7.85
2023-01-03T00:19:36.246Z,7.83
2023-01-03T00:22:03.569Z,7.82
2023-01-03T00:24:30.121Z,7.81
2023-01-03T00:26:56.622Z,7.80
2023-01-03T00:29:23.044Z,7.79
2023-01-03T00:31:49.817Z,7.77
2023-01-03T00:34:16.544Z,7.76
2023-01-03T00:36:43.071Z,7.75
2023-01-03T00:39:11.784Z,7.74
2023-01-03T00:41:39.168Z,7.73
2023-01-03T00:44:06.318Z,7.71
2023-01-03T00:46:33.899Z,7.68
2023-01-03T00:49:00.898Z,7.68
2023-01-03T00:51:31.655Z,7.66
2023-01-03T00:53:59.736Z,7.65
2023-01-03T00:56:29.065Z,7.65
2023-01-03T00:58:56.075Z,7.64
2023-01-03T01:01:28.336Z,7.64
2023-01-03T01:03:59.803Z,7.64
2023-01-03T01:06:32.122Z,7.67
2023-01-03T01:09:00.197Z,7.71
2023-01-03T01:11:28.015Z,7.72
2023-01-03T01:13:55.177Z,7.74
2023-01-03T01:16:27.427Z,7.73
2023-01-03T01:18:54.555Z,7.76
2023-01-03T01:21:23.749Z,7.75
2023-01-03T01:23:50.842Z,7.75
2023-01-03T01:26:19.582Z,7.75
2023-01-03T01:28:47.835Z,7.76
2023-01-03T01:31:16.985Z,7.76
2023-01-03T01:33:43.901Z,7.79
2023-01-03T01:36:16.153Z,7.80
2023-01-03T01:38:42.845Z,7.85
2023-01-03T01:41:13.742Z,7.87
2023-01-03T01:44:17.655Z,7.89
2023-01-03T01:46:44.700Z,7.99
2023-01-03T01:49:20.297Z,8.01
2023-01-03T01:51:47.195Z,8.07
2023-01-03T01:54:13.882Z,8.11
2023-01-03T01:56:44.392Z,8.14
2023-01-03T01:59:12.179Z,8.16
2023-01-03T02:01:40.028Z,8.17
2023-01-03T02:04:19.278Z,8.17
2023-01-03T02:06:45.910Z,8.18
2023-01-03T02:09:12.514Z,8.17
2023-01-03T02:12:14.811Z,8.13
2023-01-03T02:14:59.475Z,8.16
2023-01-03T02:17:41.253Z,8.16
2023-01-03T02:20:31.891Z,8.15
2023-01-03T02:23:01.327Z,8.16
2023-01-03T02:25:36.726Z,8.20
2023-01-03T02:28:09.374Z,8.19
2023-01-03T02:30:37.820Z,8.23
2023-01-03T02:33:18.188Z,8.23
2023-01-03T02:36:06.564Z,8.24
2023-01-03T02:38:48.356Z,8.28
2023-01-03T02:41:33.493Z,8.31
2023-01-03T02:44:25.819Z,8.30
2023-01-03T02:47:04.518Z,8.34
2023-01-03T02:49:38.213Z,8.35
2023-01-03T02:52:09.905Z,8.37
2023-01-03T02:54:43.909Z,8.38
2023-01-03T02:57:17.706Z,8.38
2023-01-03T03:00:00.725Z,8.39
2023-01-03T03:02:34.690Z,8.43
2023-01-03T03:05:05.556Z,8.45
2023-01-03T03:07:35.625Z,8.46
2023-01-03T03:10:21.726Z,8.47
2023-01-03T03:13:09.951Z,8.46
2023-01-03T03:15:59.524Z,8.46
2023-01-03T03:18:52.794Z,8.43
2023-01-03T03:21:39.476Z,8.48
2023-01-03T03:24:39.790Z,8.46
2023-01-03T03:27:31.112Z,8.48
2023-01-03T03:30:02.706Z,8.52
2023-01-03T03:32:31.980Z,8.51
2023-01-03T03:35:01.934Z,8.52
2023-01-03T03:37:31.380Z,8.52
2023-01-03T03:40:16.483Z,8.52
2023-01-03T03:43:14.861Z,8.51
2023-01-03T03:45:44.164Z,8.47
2023-01-03T03:49:01.556Z,8.40
2023-01-03T03:51:32.637Z,8.40
2023-01-03T03:54:03.441Z,8.35
2023-01-03T03:56:32.565Z,8.33
2023-01-03T03:59:05.301Z,8.31
2023-01-03T04:01:33.867Z,8.31
2023-01-03T04:04:05.945Z,8.29
2023-01-03T04:06:47.756Z,8.25
2023-01-03T04:09:14.629Z,8.25
2023-01-03T04:11:41.345Z,8.21
2023-01-03T04:14:08.134Z,8.16
2023-01-03T04:16:34.787Z,8.14
2023-01-03T04:19:01.250Z,8.11
2023-01-03T04:21:27.780Z,8.07
2023-01-03T04:23:54.354Z,8.04
2023-01-03T04:26:21.155Z,8.01
2023-01-03T04:28:47.693Z,7.99
2023-01-03T04:31:14.308Z,7.97
2023-01-03T04:33:40.815Z,7.95
2023-01-03T04:36:07.814Z,7.93
2023-01-03T04:38:34.289Z,7.93
2023-01-03T04:41:08.931Z,7.92
2023-01-03T04:43:54.280Z,7.95
2023-01-03T04:46:21.512Z,7.94
2023-01-03T04:48:48.299Z,7.94
2023-01-03T04:51:15.326Z,7.93
2023-01-03T04:53:41.958Z,7.89
2023-01-03T04:56:08.652Z,7.86
2023-01-03T04:58:35.326Z,7.79
2023-01-03T05:01:08.125Z,7.72
2023-01-03T05:03:34.802Z,7.68
2023-01-03T05:06:03.018Z,7.65
2023-01-03T05:08:29.933Z,7.59
2023-01-03T05:10:56.504Z,7.53
2023-01-03T05:13:23.343Z,7.48
2023-01-03T05:15:50.221Z,7.43
2023-01-03T05:18:17.236Z,7.39
2023-01-03T05:21:03.509Z,7.36
2023-01-03T05:23:48.400Z,7.32
2023-01-03T05:26:18.298Z,7.26
2023-01-03T05:28:48.199Z,7.23
2023-01-03T05:31:14.760Z,7.20
2023-01-03T05:33:41.696Z,7.16
2023-01-03T05:36:09.606Z,7.12
2023-01-03T05:38:37.858Z,7.10
2023-01-03T05:41:05.263Z,7.08
2023-01-03T05:43:31.753Z,7.06
2023-01-03T05:45:58.459Z,7.03
2023-01-03T05:48:25.195Z,7.02
2023-01-03T05:50:52.206Z,7.01
2023-01-03T05:53:18.763Z,6.99
2023-01-03T05:55:45.442Z,6.98
2023-01-03T05:58:12.572Z,6.96
2023-01-03T06:00:39.497Z,6.96
2023-01-03T06:03:06.437Z,6.94
2023-01-03T06:05:32.964Z,6.95
2023-01-03T06:08:01.960Z,6.93
2023-01-03T06:10:28.914Z,6.92
2023-01-03T06:12:55.793Z,6.90
2023-01-03T06:15:22.373Z,6.89
2023-01-03T06:17:55.027Z,6.90
2023-01-03T06:20:21.584Z,6.91
2023-01-03T06:22:48.095Z,6.93
2023-01-03T06:25:14.783Z,6.95
2023-01-03T06:27:41.379Z,6.97
2023-01-03T06:30:08.639Z,6.96
2023-01-03T06:32:35.202Z,6.99
2023-01-03T06:35:01.799Z,7.00
2023-01-03T06:37:28.281Z,7.01
2023-01-03T06:39:54.858Z,7.02
2023-01-03T06:42:39.560Z,7.04
2023-01-03T06:45:25.462Z,7.08
2023-01-03T06:48:10.353Z,7.10
2023-01-03T06:50:58.185Z,7.10
2023-01-03T06:53:26.832Z,7.11
2023-01-03T06:55:57.117Z,7.10
2023-01-03T06:58:24.107Z,7.11
2023-01-03T07:00:54.709Z,7.09
2023-01-03T07:03:22.019Z,7.09
2023-01-03T07:05:49.072Z,7.09
2023-01-03T07:08:15.720Z,7.09
2023-01-03T07:10:42.347Z,7.07
2023-01-03T07:13:27.506Z,7.07
2023-01-03T07:15:54.259Z,7.07
2023-01-03T07:18:20.996Z,7.05
2023-01-03T07:20:47.613Z,7.03
2023-01-03T07:23:14.310Z,7.01
2023-01-03T07:25:43.970Z,6.98
2023-01-03T07:28:12.420Z,6.93
2023-01-03T07:30:41.081Z,6.91
2023-01-03T07:33:12.021Z,6.87
2023-01-03T07:35:38.634Z,6.86
2023-01-03T07:38:06.421Z,6.85
2023-01-03T07:40:33.177Z,6.85
2023-01-03T07:43:18.437Z,6.86
2023-01-03T07:45:46.190Z,6.88
2023-01-03T07:48:13.770Z,6.89
2023-01-03T07:50:41.430Z,6.91
2023-01-03T07:53:08.885Z,6.93
2023-01-03T07:55:37.051Z,6.94
2023-01-03T07:58:03.822Z,6.97
2023-01-03T08:00:30.771Z,6.99
2023-01-03T08:02:57.355Z,7.01
2023-01-03T08:05:25.171Z,7.05
2023-01-03T08:07:52.696Z,7.06
2023-01-03T08:10:38.407Z,7.06
2023-01-03T08:13:18.188Z,7.07
2023-01-03T08:15:53.131Z,7.05
2023-01-03T08:18:22.490Z,7.04
2023-01-03T08:20:49.866Z,7.04
2023-01-03T08:23:16.363Z,7.03
2023-01-03T08:25:43.002Z,7.03
2023-01-03T08:28:10.909Z,7.02
2023-01-03T08:30:49.518Z,7.00
2023-01-03T08:33:18.433Z,7.04
2023-01-03T08:35:55.882Z,7.01
2023-01-03T08:38:27.408Z,7.02
2023-01-03T08:40:55.348Z,7.03
2023-01-03T08:43:22.133Z,7.03
2023-01-03T08:45:49.149Z,7.01
2023-01-03T08:48:19.388Z,7.02
2023-01-03T08:50:46.060Z,7.01
2023-01-03T08:53:12.549Z,7.02
2023-01-03T08:58:28.437Z,7.04
2023-01-03T09:00:54.808Z,7.06
2023-01-03T09:03:21.286Z,7.06
2023-01-03T09:05:47.745Z,7.08
2023-01-03T09:08:14.180Z,7.09
2023-01-03T09:10:47.156Z,7.12
2023-01-03T09:13:14.253Z,7.13
2023-01-03T09:15:40.747Z,7.14
2023-01-03T09:18:07.639Z,7.14
2023-01-03T09:20:34.215Z,7.16
2023-01-03T09:26:39.746Z,7.18
2023-01-03T09:29:06.332Z,7.17
2023-01-03T09:31:39.955Z,7.16
2023-01-03T09:34:06.844Z,7.16
2023-01-03T09:36:34.631Z,7.18
2023-01-03T09:39:01.147Z,7.19
2023-01-03T09:41:28.415Z,7.20
2023-01-03T09:44:02.694Z,7.20
2023-01-03T09:46:30.944Z,7.25
2023-01-03T09:48:57.846Z,7.28
2023-01-03T09:51:49.156Z,7.32
2023-01-03T09:54:41.244Z,7.37
2023-01-03T09:57:54.069Z,7.41
2023-01-03T10:00:54.406Z,7.50
2023-01-03T10:03:50.234Z,7.55
2023-01-03T10:06:35.254Z,7.59
2023-01-03T10:09:15.547Z,7.65
2023-01-03T10:11:59.603Z,7.71
2023-01-03T10:14:29.191Z,7.77
2023-01-03T10:17:14.575Z,7.82
2023-01-03T10:19:50.273Z,7.91
2023-01-03T10:22:20.803Z,7.97
2023-01-03T10:24:51.033Z,8.03
2023-01-03T10:27:22.067Z,8.11
2023-01-03T10:30:01.075Z,8.17
2023-01-03T10:32:41.240Z,8.24
2023-01-03T10:35:24.778Z,8.34
2023-01-03T10:37:53.566Z,8.43
2023-01-03T10:40:21.683Z,8.52
2023-01-03T10:42:50.292Z,8.60
2023-01-03T10:45:21.245Z,8.66
2023-01-03T10:48:01.277Z,8.70
2023-01-03T10:50:29.442Z,8.81
2023-01-03T10:53:00.362Z,8.88
2023-01-03T10:55:28.294Z,8.95
2023-01-03T10:58:21.135Z,8.98
2023-01-03T11:00:48.263Z,9.07
2023-01-03T11:03:16.660Z,9.08
2023-01-03T11:05:46.497Z,9.09
2023-01-03T11:08:35.086Z,9.06
2023-01-03T11:11:01.764Z,9.09
2023-01-03T11:13:28.417Z,9.08
2023-01-03T11:15:56.880Z,9.08
2023-01-03T11:18:27.702Z,9.09
2023-01-03T11:21:18.255Z,9.07
2023-01-03T11:24:03.942Z,9.10
2023-01-03T11:26:43.843Z,9.12
2023-01-03T11:29:16.383Z,9.17
2023-01-03T11:32:01.640Z,9.17
2023-01-03T11:35:20.780Z,9.20
2023-01-03T11:37:53.543Z,9.30
2023-01-03T11:40:33.644Z,9.37
2023-01-03T11:43:40.018Z,9.46
2023-01-03T11:46:31.894Z,9.54
2023-01-03T11:49:13.761Z,9.63
2023-01-03T11:51:58.498Z,9.67
2023-01-03T11:54:53.529Z,9.65
2023-01-03T11:57:45.742Z,9.65
2023-01-03T12:00:22.183Z,9.67
2023-01-03T12:03:07.091Z,9.65
2023-01-03T12:05:42.984Z,9.65
2023-01-03T12:08:12.542Z,9.66
2023-01-03T12:10:57.358Z,9.68
2023-01-03T12:14:01.377Z,9.62
2023-01-03T12:16:43.852Z,9.62
2023-01-03T12:19:28.651Z,9.65
2023-01-03T12:22:18.172Z,9.61
2023-01-03T12:25:05.964Z,9.64
2023-01-03T12:27:36.352Z,9.63
2023-01-03T12:30:28.148Z,9.60
2023-01-03T12:33:13.045Z,9.60
2023-01-03T12:35:49.362Z,9.58
2023-01-03T12:38:18.561Z,9.58
2023-01-03T12:40:54.448Z,9.57
2023-01-03T12:43:33.951Z,9.56
2023-01-03T12:46:12.926Z,9.55
2023-01-03T12:49:02.624Z,9.51
2023-01-03T12:51:30.138Z,9.53
2023-01-03T12:53:59.500Z,9.49
2023-01-03T12:56:34.765Z,9.49
2023-01-03T12:59:16.287Z,9.49
2023-01-03T13:01:54.431Z,9.47
2023-01-03T13:04:38.807Z,9.46
2023-01-03T13:07:14.355Z,9.51
2023-01-03T13:10:01.208Z,9.43
2023-01-03T13:12:32.006Z,9.47
2023-01-03T13:15:33.328Z,9.43
2023-01-03T13:18:20.694Z,9.44
2023-01-03T13:20:54.126Z,9.46
2023-01-03T13:23:37.072Z,9.43
2023-01-03T13:26:04.817Z,9.44
2023-01-03T13:28:36.182Z,9.42
2023-01-03T13:31:14.734Z,9.39
2023-01-03T13:33:57.948Z,9.39
2023-01-03T13:36:24.959Z,9.43
2023-01-03T13:38:51.803Z,9.46
2023-01-03T13:41:38.819Z,9.41
2023-01-03T13:44:23.457Z,9.45
2023-01-03T13:46:51.271Z,9.50
2023-01-03T13:49:24.213Z,9.51
2023-01-03T13:51:54.743Z,9.53
2023-01-03T13:54:21.217Z,9.57
2023-01-03T13:56:47.678Z,9.59
2023-01-03T13:59:14.123Z,9.61
2023-01-03T14:01:52.647Z,9.60
2023-01-03T14:05:00.683Z,9.61
2023-01-03T14:07:47.814Z,9.64
2023-01-03T14:10:48.324Z,9.68
2023-01-03T14:13:40.963Z,9.70
2023-01-03T14:16:25.589Z,9.73
2023-01-03T14:19:30.503Z,9.73
2023-01-03T14:22:31.346Z,9.75
2023-01-03T14:24:58.915Z,9.81
2023-01-03T14:27:40.718Z,9.78
2023-01-03T14:30:28.397Z,9.80
2023-01-03T14:32:54.989Z,9.85
2023-01-03T14:35:34.612Z,9.82
2023-01-03T14:38:06.457Z,9.88
2023-01-03T14:40:33.851Z,9.88
2023-01-03T14:43:04.688Z,9.87
2023-01-03T14:45:31.143Z,9.89
2023-01-03T14:47:58.011Z,9.91
2023-01-03T14:50:30.008Z,9.89
2023-01-03T14:52:58.777Z,9.91
2023-01-03T14:55:28.699Z,9.91
2023-01-03T15:00:36.411Z,9.93
2023-01-03T15:03:04.279Z,9.94
2023-01-03T15:05:40.706Z,9.93
2023-01-03T15:08:22.378Z,9.90
2023-01-03T15:10:56.870Z,9.92
2023-01-03T15:13:31.051Z,9.91
2023-01-03T15:16:01.725Z,9.91
2023-01-03T15:18:31.844Z,9.91
2023-01-03T15:21:00.036Z,9.92
2023-01-03T15:23:47.252Z,9.86
2023-01-03T15:26:23.729Z,9.88
2023-01-03T15:28:50.210Z,9.92
2023-01-03T15:31:34.568Z,9.88
2023-01-03T15:34:18.282Z,9.94
2023-01-03T15:36:54.753Z,9.91
2023-01-03T15:39:24.863Z,9.93
2023-01-03T15:42:43.568Z,9.92
2023-01-03T15:45:16.028Z,9.90
2023-01-03T15:47:43.701Z,9.95
2023-01-03T15:50:14.290Z,9.92
2023-01-03T15:52:41.214Z,9.91
2023-01-03T15:55:09.322Z,9.91
2023-01-03T15:57:35.888Z,9.91
2023-01-03T16:00:04.376Z,9.90
2023-01-03T16:02:31.928Z,9.91
2023-01-03T16:04:58.516Z,9.90
2023-01-03T16:07:26.464Z,9.91
2023-01-03T16:09:52.992Z,9.93
2023-01-03T16:12:32.925Z,9.90
2023-01-03T16:14:59.961Z,9.96
2023-01-03T16:17:28.581Z,9.96
2023-01-03T16:19:57.581Z,9.94
2023-01-03T16:22:34.371Z,9.95
2023-01-03T16:25:01.363Z,9.93
2023-01-03T16:27:27.824Z,9.92
2023-01-03T16:29:55.122Z,9.90
2023-01-03T16:32:27.138Z,9.86
2023-01-03T16:35:12.236Z,9.80
2023-01-03T16:37:38.738Z,9.82
2023-01-03T16:40:06.913Z,9.80
2023-01-03T16:42:33.388Z,9.80
2023-01-03T16:44:59.892Z,9.80
2023-01-03T16:47:33.164Z,9.74
2023-01-03T16:50:04.519Z,9.73
2023-01-03T16:52:37.739Z,9.71
2023-01-03T16:55:20.600Z,9.65
2023-01-03T16:57:53.596Z,9.66
2023-01-03T17:00:23.361Z,9.63
2023-01-03T17:02:50.229Z,9.61
2023-01-03T17:05:17.003Z,9.59
2023-01-03T17:07:46.587Z,9.56
2023-01-03T17:10:29.538Z,9.51
2023-01-03T17:12:57.940Z,9.51
2023-01-03T17:15:24.559Z,9.50
2023-01-03T17:17:51.342Z,9.47
2023-01-03T17:20:19.605Z,9.45
2023-01-03T17:22:57.712Z,9.40
2023-01-03T17:25:24.965Z,9.39
2023-01-03T17:27:59.159Z,9.35
2023-01-03T17:30:27.930Z,9.34
2023-01-03T17:32:55.350Z,9.33
2023-01-03T17:35:22.596Z,9.31
2023-01-03T17:38:23.927Z,9.27
2023-01-03T17:40:36.597Z,9.25
2023-01-03T17:43:03.105Z,9.24
2023-01-03T17:45:48.512Z,9.22
2023-01-03T17:48:33.741Z,9.19
2023-01-03T17:51:01.774Z,9.15
2023-01-03T17:53:29.464Z,9.11
2023-01-03T17:55:56.205Z,9.11
2023-01-03T17:58:37.112Z,9.05
2023-01-03T18:01:05.849Z,9.08
2023-01-03T18:03:32.492Z,9.09
2023-01-03T18:06:03.633Z,9.09
2023-01-03T18:08:30.125Z,9.10
2023-01-03T18:10:56.990Z,9.10
2023-01-03T18:13:32.185Z,9.10
2023-01-03T18:15:58.988Z,9.12
2023-01-03T18:18:27.407Z,9.10
2023-01-03T18:20:54.515Z,9.08
2023-01-03T18:23:37.722Z,9.04
2023-01-03T18:26:08.410Z,9.05
2023-01-03T18:28:34.913Z,9.09
2023-01-03T18:31:01.609Z,9.05
2023-01-03T18:33:28.187Z,9.03
2023-01-03T18:35:54.995Z,9.01
2023-01-03T18:38:29.429Z,8.95
2023-01-03T18:41:03.997Z,8.98
2023-01-03T18:43:32.060Z,8.97
2023-01-03T18:45:58.669Z,8.97
2023-01-03T18:48:25.303Z,8.98
2023-01-03T18:50:58.797Z,8.96
2023-01-03T18:53:48.449Z,8.95
2023-01-03T18:56:22.164Z,8.92
2023-01-03T18:58:56.584Z,8.96
2023-01-03T19:01:29.788Z,8.95
2023-01-03T19:03:57.837Z,8.93
2023-01-03T19:06:34.344Z,8.92
2023-01-03T19:09:03.954Z,8.91
2023-01-03T19:11:34.225Z,8.90
2023-01-03T19:14:02.590Z,8.91
2023-01-03T19:16:32.384Z,8.89
2023-01-03T19:18:59.954Z,8.89
2023-01-03T19:21:32.073Z,8.87
2023-01-03T19:24:04.706Z,8.84
2023-01-03T19:26:33.745Z,8.86
2023-01-03T19:29:03.670Z,8.83
2023-01-03T19:31:41.110Z,8.81
2023-01-03T19:34:15.457Z,8.81
2023-01-03T19:36:42.257Z,8.83
2023-01-03T19:39:09.605Z,8.82
2023-01-03T19:42:01.384Z,8.80
2023-01-03T19:44:27.917Z,8.82
2023-01-03T19:46:54.542Z,8.81
2023-01-03T19:49:21.554Z,8.82
2023-01-03T19:51:48.380Z,8.80
2023-01-03T19:54:15.347Z,8.82
2023-01-03T19:56:42.167Z,8.84
2023-01-03T19:59:31.308Z,8.81
2023-01-03T20:02:24.001Z,8.88
2023-01-03T20:04:45.081Z,8.90
2023-01-03T20:07:14.924Z,8.88
2023-01-03T20:09:41.540Z,8.89
2023-01-03T20:12:14.690Z,8.88
2023-01-03T20:14:43.035Z,8.90
2023-01-03T20:17:22.721Z,8.88
2023-01-03T20:19:49.525Z,8.91
2023-01-03T20:22:45.014Z,8.91
2023-01-03T20:25:04.285Z,8.90
2023-01-03T20:27:30.880Z,8.89
2023-01-03T20:29:57.408Z,8.89
2023-01-03T20:32:24.855Z,8.86
2023-01-03T20:34:51.493Z,8.85
2023-01-03T20:37:20.710Z,8.85
2023-01-03T20:39:47.397Z,8.85
2023-01-03T20:42:24.960Z,8.80
2023-01-03T20:44:51.681Z,8.80
2023-01-03T20:47:23.571Z,8.79
2023-01-03T20:49:50.887Z,8.79
2023-01-03T20:52:18.689Z,8.78
2023-01-03T20:54:45.316Z,8.77
2023-01-03T20:59:51.011Z,8.75
2023-01-03T21:02:17.561Z,8.71
2023-01-03T21:04:44.413Z,8.69
2023-01-03T21:07:48.575Z,8.63
2023-01-03T21:10:25.199Z,8.65
2023-01-03T21:12:51.705Z,8.67
2023-01-03T21:15:18.290Z,8.65
2023-01-03T21:17:50.499Z,8.64
2023-01-03T21:20:21.017Z,8.63
2023-01-03T21:22:47.893Z,8.62
2023-01-03T21:25:19.507Z,8.59
2023-01-03T21:27:46.147Z,8.59
2023-01-03T21:30:13.847Z,8.58
2023-01-03T21:32:40.362Z,8.58
2023-01-03T21:35:09.540Z,8.57
2023-01-03T21:37:36.060Z,8.55
2023-01-03T21:40:02.578Z,8.54
2023-01-03T21:42:47.353Z,8.53
2023-01-03T21:45:14.265Z,8.48
2023-01-03T21:47:40.709Z,8.47
2023-01-03T21:50:08.053Z,8.47
2023-01-03T21:52:34.792Z,8.45
2023-01-03T21:55:01.326Z,8.42
2023-01-03T21:57:27.926Z,8.42
2023-01-03T21:59:54.411Z,8.42
2023-01-03T22:02:43.798Z,8.42
2023-01-03T22:05:10.588Z,8.41
2023-01-03T22:07:37.026Z,8.40
2023-01-03T22:10:19.261Z,8.39
2023-01-03T22:12:56.940Z,8.38
2023-01-03T22:15:24.780Z,8.39
2023-01-03T22:17:52.499Z,8.38
2023-01-03T22:20:24.825Z,8.34
2023-01-03T22:22:51.983Z,8.34
2023-01-03T22:25:21.477Z,8.33
2023-01-03T22:27:48.456Z,8.33
2023-01-03T22:30:17.631Z,8.33
2023-01-03T22:32:44.545Z,8.33
2023-01-03T22:35:12.982Z,8.32
2023-01-03T22:37:39.718Z,8.30
2023-01-03T22:40:08.130Z,8.28
2023-01-03T22:42:34.800Z,8.29
2023-01-03T22:45:01.222Z,8.30
2023-01-03T22:47:28.357Z,8.30
2023-01-03T22:49:55.106Z,8.31
2023-01-03T22:52:21.698Z,8.32
2023-01-03T22:54:48.220Z,8.31
2023-01-03T22:57:14.758Z,8.33
2023-01-03T22:59:41.353Z,8.33
2023-01-03T23:02:08.286Z,8.31
2023-01-03T23:04:34.946Z,8.32
2023-01-03T23:07:01.471Z,8.32
2023-01-03T23:09:28.295Z,8.31
2023-01-03T23:12:27.297Z,8.31
2023-01-03T23:14:53.811Z,8.30
2023-01-03T23:17:38.925Z,8.29
2023-01-03T23:20:05.925Z,8.30
2023-01-03T23:22:32.387Z,8.30
2023-01-03T23:24:58.893Z,8.31
2023-01-03T23:27:27.358Z,8.31
2023-01-03T23:29:54.821Z,8.32
2023-01-03T23:32:21.408Z,8.32
2023-01-03T23:34:47.997Z,8.34
2023-01-03T23:37:14.602Z,8.33
2023-01-03T23:39:41.060Z,8.34
2023-01-03T23:42:07.604Z,8.34
2023-01-03T23:44:34.129Z,8.35
2023-01-03T23:47:02.242Z,8.37
2023-01-03T23:49:31.459Z,8.39
2023-01-03T23:51:57.917Z,8.39
2023-01-03T23:54:24.381Z,8.40
2023-01-03T23:56:50.870Z,8.41
2023-01-03T23:59:17.461Z,8.42
